METAR Data
IDs: Format: Raw Decoded Include TAF

Data at: 0605 UTC 07 Dec 2022

METAR for:EDVE (Braunschweig Arpt, NI, DE)
Text:EDVE 070550Z 28009KT 9999 BKN010 03/02 Q1011
Temperature: 3.0°C ( 37°F)
Dewpoint: 2.0°C ( 36°F) [RH = 93%]
Pressure (altimeter):29.85 inches Hg (1011.0 mb)
Winds:from the W (280 degrees) at 10 MPH (9 knots; 4.6 m/s)
Visibility:6 or more sm (10+ km)
Ceiling:1000 feet AGL
Clouds: broken clouds at 1000 feet AGL

TAF for:EDVE (Braunschweig Arpt, NI, DE)
Text:No data found